createdAt,value
2018-05-09T00:01:22.867Z,0.00
2018-05-09T00:02:22.758Z,0.00
2018-05-09T00:04:15.504Z,0.00
2018-05-09T00:05:15.426Z,0.00
2018-05-09T00:07:08.274Z,0.00
2018-05-09T00:08:08.155Z,0.00
2018-05-09T00:10:01.425Z,0.00
2018-05-09T00:11:01.334Z,0.00
2018-05-09T00:12:54.338Z,0.00
2018-05-09T00:13:54.073Z,0.00
2018-05-09T00:15:46.940Z,0.00
2018-05-09T00:16:46.812Z,0.00
2018-05-09T00:18:39.557Z,0.00
2018-05-09T00:19:39.458Z,0.00
2018-05-09T00:21:32.261Z,0.00
2018-05-09T00:22:32.119Z,0.00
2018-05-09T00:24:24.965Z,0.00
2018-05-09T00:25:24.757Z,0.00
2018-05-09T00:27:17.664Z,0.00
2018-05-09T00:28:17.418Z,0.00
2018-05-09T00:30:10.309Z,0.00
2018-05-09T00:31:10.158Z,0.00
2018-05-09T00:33:03.036Z,0.00
2018-05-09T00:34:02.896Z,0.00
2018-05-09T00:35:55.766Z,0.00
2018-05-09T00:36:55.687Z,0.00
2018-05-09T00:38:49.413Z,0.00
2018-05-09T00:39:49.320Z,0.00
2018-05-09T00:41:42.240Z,0.00
2018-05-09T00:42:42.069Z,0.00
2018-05-09T00:44:34.912Z,0.00
2018-05-09T00:45:34.817Z,0.00
2018-05-09T00:47:27.591Z,0.00
2018-05-09T00:48:27.481Z,0.00
2018-05-09T00:50:20.452Z,0.00
2018-05-09T00:51:20.247Z,0.00
2018-05-09T00:53:13.088Z,0.00
2018-05-09T00:54:12.998Z,0.00
2018-05-09T00:56:05.850Z,0.00
2018-05-09T00:57:05.723Z,0.00
2018-05-09T00:58:58.498Z,0.00
2018-05-09T00:59:58.399Z,0.00
2018-05-09T01:01:51.226Z,0.00
2018-05-09T01:02:51.130Z,0.00
2018-05-09T01:04:43.981Z,0.00
2018-05-09T01:05:43.769Z,0.00
2018-05-09T01:07:36.663Z,0.00
2018-05-09T01:08:36.522Z,0.00
2018-05-09T01:10:29.405Z,0.00
2018-05-09T01:11:29.294Z,0.00
2018-05-09T01:13:22.033Z,0.00
2018-05-09T01:14:21.937Z,0.00
2018-05-09T01:16:14.764Z,0.00
2018-05-09T01:17:14.661Z,0.00
2018-05-09T01:19:07.424Z,0.00
2018-05-09T01:20:07.320Z,0.00
2018-05-09T01:22:01.698Z,0.00
2018-05-09T01:23:00.066Z,0.00
2018-05-09T01:24:52.823Z,0.00
2018-05-09T01:25:52.698Z,0.00
2018-05-09T01:27:45.564Z,0.00
2018-05-09T01:28:45.450Z,0.00
2018-05-09T01:30:38.222Z,0.00
2018-05-09T01:31:38.143Z,0.00
2018-05-09T01:33:31.494Z,0.00
2018-05-09T01:34:30.857Z,0.00
2018-05-09T01:36:23.698Z,0.00
2018-05-09T01:37:23.493Z,0.00
2018-05-09T01:39:16.366Z,0.00
2018-05-09T01:40:16.248Z,0.00
2018-05-09T01:42:09.188Z,0.00
2018-05-09T01:43:09.088Z,0.00
2018-05-09T01:45:01.861Z,0.00
2018-05-09T01:46:01.742Z,0.00
2018-05-09T01:47:54.580Z,0.00
2018-05-09T01:48:54.498Z,0.00
2018-05-09T01:50:47.253Z,0.00
2018-05-09T01:51:47.167Z,0.00
2018-05-09T01:53:39.983Z,0.00
2018-05-09T01:54:39.898Z,0.00
2018-05-09T01:56:33.253Z,0.00
2018-05-09T01:57:33.660Z,0.00
2018-05-09T01:59:25.440Z,0.00
2018-05-09T02:00:25.289Z,0.00
2018-05-09T02:02:18.140Z,0.00
2018-05-09T02:03:18.034Z,0.00
2018-05-09T02:05:10.797Z,0.00
2018-05-09T02:06:10.721Z,0.00
2018-05-09T02:08:03.429Z,0.00
2018-05-09T02:09:03.322Z,0.00
2018-05-09T02:10:57.242Z,0.00
2018-05-09T02:11:57.121Z,0.00
2018-05-09T02:13:50.453Z,0.00
2018-05-09T02:14:49.865Z,0.00
2018-05-09T02:16:42.723Z,0.00
2018-05-09T02:17:42.669Z,0.00
2018-05-09T02:19:35.337Z,0.00
2018-05-09T02:20:35.253Z,0.00
2018-05-09T02:22:28.141Z,0.00
2018-05-09T02:23:27.997Z,0.00
2018-05-09T02:25:20.841Z,0.00
2018-05-09T02:26:20.767Z,0.00
2018-05-09T02:28:14.129Z,0.00
2018-05-09T02:29:13.501Z,0.00
2018-05-09T02:31:06.388Z,0.00
2018-05-09T02:32:06.253Z,0.00
2018-05-09T02:33:59.211Z,0.00
2018-05-09T02:34:59.099Z,0.00
2018-05-09T02:36:51.984Z,0.00
2018-05-09T02:37:51.866Z,0.00
2018-05-09T02:39:44.728Z,0.00
2018-05-09T02:40:44.597Z,0.00
2018-05-09T02:42:37.359Z,0.00
2018-05-09T02:43:37.275Z,0.00
2018-05-09T02:45:30.128Z,0.00
2018-05-09T02:46:29.997Z,0.00
2018-05-09T02:48:22.764Z,0.00
2018-05-09T02:49:22.645Z,0.00
2018-05-09T02:51:15.919Z,0.00
2018-05-09T02:52:15.817Z,0.00
2018-05-09T02:54:08.562Z,0.00
2018-05-09T02:55:08.450Z,0.00
2018-05-09T02:57:01.186Z,0.00
2018-05-09T02:58:01.133Z,0.00
2018-05-09T02:59:53.860Z,0.00
2018-05-09T03:00:53.752Z,0.00
2018-05-09T03:02:46.502Z,0.00
2018-05-09T03:03:46.403Z,0.00
2018-05-09T03:05:39.256Z,4.00
2018-05-09T03:06:39.159Z,0.00
2018-05-09T03:08:31.982Z,4.00
2018-05-09T03:09:31.781Z,0.00
2018-05-09T03:11:24.557Z,4.00
2018-05-09T03:12:24.452Z,4.00
2018-05-09T03:14:17.305Z,4.00
2018-05-09T03:15:17.191Z,8.00
2018-05-09T03:17:09.927Z,8.00
2018-05-09T03:18:09.846Z,8.00
2018-05-09T03:20:02.690Z,12.00
2018-05-09T03:21:02.573Z,16.00
2018-05-09T03:22:55.503Z,16.00
2018-05-09T03:23:55.326Z,20.00
2018-05-09T03:25:48.206Z,28.00
2018-05-09T03:26:48.118Z,32.00
2018-05-09T03:28:40.931Z,36.00
2018-05-09T03:29:40.745Z,40.00
2018-05-09T03:31:34.007Z,52.00
2018-05-09T03:32:33.909Z,56.00
2018-05-09T03:34:26.757Z,64.00
2018-05-09T03:35:26.655Z,68.00
2018-05-09T03:37:20.542Z,84.00
2018-05-09T03:38:20.529Z,92.00
2018-05-09T03:40:13.280Z,108.00
2018-05-09T03:41:13.174Z,112.00
2018-05-09T03:43:06.051Z,132.00
2018-05-09T03:44:05.927Z,140.00
2018-05-09T03:45:58.677Z,160.00
2018-05-09T03:46:58.581Z,168.00
2018-05-09T03:48:51.325Z,188.00
2018-05-09T03:49:51.225Z,200.00
2018-05-09T03:51:44.108Z,224.00
2018-05-09T03:52:43.963Z,232.00
2018-05-09T03:54:36.712Z,256.00
2018-05-09T03:55:36.629Z,268.00
2018-05-09T03:57:29.971Z,292.00
2018-05-09T03:58:29.761Z,308.00
2018-05-09T04:00:23.533Z,332.00
2018-05-09T04:01:23.434Z,340.00
2018-05-09T04:03:16.192Z,364.00
2018-05-09T04:04:16.085Z,380.00
2018-05-09T04:06:08.928Z,400.00
2018-05-09T04:07:08.861Z,416.00
2018-05-09T04:09:01.600Z,440.00
2018-05-09T04:10:01.477Z,456.00
2018-05-09T04:11:54.232Z,476.00
2018-05-09T04:12:54.119Z,488.00
2018-05-09T04:14:46.971Z,516.00
2018-05-09T04:15:46.772Z,528.00
2018-05-09T04:17:39.639Z,552.00
2018-05-09T04:18:39.526Z,560.00
2018-05-09T04:20:32.310Z,584.00
2018-05-09T04:21:32.203Z,596.00
2018-05-09T04:23:24.924Z,616.00
2018-05-09T04:24:24.824Z,628.00
2018-05-09T04:26:17.565Z,652.00
2018-05-09T04:27:17.550Z,664.00
2018-05-09T04:29:10.220Z,684.00
2018-05-09T04:30:10.122Z,692.00
2018-05-09T04:32:02.971Z,712.00
2018-05-09T04:33:02.873Z,724.00
2018-05-09T04:34:55.616Z,744.00
2018-05-09T04:35:55.518Z,756.00
2018-05-09T04:37:49.350Z,776.00
2018-05-09T04:38:48.245Z,784.00
2018-05-09T04:40:41.117Z,800.00
2018-05-09T04:41:41.002Z,812.00
2018-05-09T04:43:33.851Z,828.00
2018-05-09T04:44:33.767Z,840.00
2018-05-09T04:46:27.063Z,852.00
2018-05-09T04:47:26.967Z,864.00
2018-05-09T04:49:19.652Z,880.00
2018-05-09T04:50:19.551Z,888.00
2018-05-09T04:52:12.411Z,900.00
2018-05-09T04:53:12.310Z,912.00
2018-05-09T04:55:05.556Z,928.00
2018-05-09T04:56:05.455Z,932.00
2018-05-09T04:57:58.772Z,948.00
2018-05-09T04:58:58.627Z,952.00
2018-05-09T05:00:51.914Z,972.00
2018-05-09T05:01:51.785Z,980.00
2018-05-09T05:03:44.648Z,992.00
2018-05-09T05:04:44.573Z,996.00
2018-05-09T05:06:37.309Z,1012.00
2018-05-09T05:07:37.191Z,1020.00
2018-05-09T05:09:30.057Z,1036.00
2018-05-09T05:10:29.931Z,1044.00
2018-05-09T05:12:22.701Z,1060.00
2018-05-09T05:13:22.594Z,1072.00
2018-05-09T05:15:15.365Z,1088.00
2018-05-09T05:16:15.237Z,1104.00
2018-05-09T05:18:08.082Z,1128.00
2018-05-09T05:19:07.982Z,1140.00
2018-05-09T05:21:00.859Z,1172.00
2018-05-09T05:22:00.727Z,1200.00
2018-05-09T05:23:53.464Z,1232.00
2018-05-09T05:24:53.391Z,1256.00
2018-05-09T05:26:47.748Z,1340.00
2018-05-09T05:27:47.571Z,1384.00
2018-05-09T05:29:40.407Z,1444.00
2018-05-09T05:30:40.304Z,1468.00
2018-05-09T05:32:33.190Z,1492.00
2018-05-09T05:33:33.089Z,1500.00
2018-05-09T05:35:25.893Z,1512.00
2018-05-09T05:36:25.794Z,1520.00
2018-05-09T05:38:18.689Z,1532.00
2018-05-09T05:39:18.596Z,1540.00
2018-05-09T05:41:11.419Z,1556.00
2018-05-09T05:42:11.326Z,1560.00
2018-05-09T05:44:04.196Z,1580.00
2018-05-09T05:45:04.193Z,1588.00
2018-05-09T05:46:56.909Z,1600.00
2018-05-09T05:47:56.810Z,1608.00
2018-05-09T05:49:49.580Z,1616.00
2018-05-09T05:50:49.456Z,1620.00
2018-05-09T05:52:42.286Z,1632.00
2018-05-09T05:53:42.187Z,1640.00
2018-05-09T05:55:35.085Z,1656.00
2018-05-09T05:56:34.946Z,1660.00
2018-05-09T05:58:27.806Z,1672.00
2018-05-09T05:59:27.686Z,1676.00
2018-05-09T06:01:20.552Z,1688.00
2018-05-09T06:02:20.447Z,1696.00
2018-05-09T06:04:13.289Z,1708.00
2018-05-09T06:05:13.206Z,1720.00
2018-05-09T06:07:06.068Z,1736.00
2018-05-09T06:08:05.944Z,1736.00
2018-05-09T06:10:00.220Z,1748.00
2018-05-09T06:11:00.123Z,1760.00
2018-05-09T06:12:53.004Z,1772.00
2018-05-09T06:13:52.876Z,1784.00
2018-05-09T06:15:45.634Z,1800.00
2018-05-09T06:16:45.536Z,1812.00
2018-05-09T06:18:38.801Z,1824.00
2018-05-09T06:19:38.681Z,1832.00
2018-05-09T06:21:31.540Z,1848.00
2018-05-09T06:22:31.440Z,1856.00
2018-05-09T06:24:24.298Z,1872.00
2018-05-09T06:25:24.191Z,1876.00
2018-05-09T06:27:17.023Z,1888.00
2018-05-09T06:28:16.927Z,1900.00
2018-05-09T06:30:09.866Z,1920.00
2018-05-09T06:31:09.685Z,1928.00
2018-05-09T06:33:02.545Z,1924.00
2018-05-09T06:34:02.427Z,1924.00
2018-05-09T06:35:55.855Z,1952.00
2018-05-09T06:36:55.721Z,1968.00
2018-05-09T06:38:48.547Z,1984.00
2018-05-09T06:39:48.465Z,1988.00
2018-05-09T06:41:41.394Z,2008.00
2018-05-09T06:42:41.212Z,2016.00
2018-05-09T06:44:34.550Z,2032.00
2018-05-09T06:45:34.479Z,2036.00
2018-05-09T06:47:27.387Z,2056.00
2018-05-09T06:48:27.303Z,2068.00
2018-05-09T06:50:20.491Z,2080.00
2018-05-09T06:51:19.949Z,2092.00
2018-05-09T06:53:13.777Z,2108.00
2018-05-09T06:54:13.624Z,2096.00
2018-05-09T06:56:06.476Z,2136.00
2018-05-09T06:57:06.393Z,2148.00
2018-05-09T06:58:59.306Z,2160.00
2018-05-09T06:59:59.210Z,2172.00
2018-05-09T07:01:52.070Z,2184.00
2018-05-09T07:02:51.992Z,2196.00
2018-05-09T07:04:45.383Z,2212.00
2018-05-09T07:05:44.742Z,2216.00
2018-05-09T07:07:37.578Z,2232.00
2018-05-09T07:08:37.477Z,2244.00
2018-05-09T07:10:30.332Z,2256.00
2018-05-09T07:11:30.229Z,2276.00
2018-05-09T07:13:23.061Z,2292.00
2018-05-09T07:14:22.975Z,2304.00
2018-05-09T07:16:15.837Z,2320.00
2018-05-09T07:17:15.772Z,2328.00
2018-05-09T07:19:08.581Z,2348.00
2018-05-09T07:20:08.483Z,2360.00
2018-05-09T07:22:01.368Z,2380.00
2018-05-09T07:23:01.223Z,2388.00
2018-05-09T07:24:54.066Z,2408.00
2018-05-09T07:25:53.970Z,2420.00
2018-05-09T07:27:47.343Z,2428.00
2018-05-09T07:28:47.233Z,2432.00
2018-05-09T07:30:40.081Z,2444.00
2018-05-09T07:31:39.984Z,2456.00
2018-05-09T07:33:32.873Z,2480.00
2018-05-09T07:34:32.728Z,2492.00
2018-05-09T07:36:26.209Z,2516.00
2018-05-09T07:37:26.020Z,2528.00
2018-05-09T07:39:18.889Z,2536.00
2018-05-09T07:40:18.768Z,2540.00
2018-05-09T07:42:11.668Z,2556.00
2018-05-09T07:43:11.518Z,2560.00
2018-05-09T07:45:04.388Z,2564.00
2018-05-09T07:46:04.245Z,2580.00
2018-05-09T07:47:57.203Z,2592.00
2018-05-09T07:48:56.993Z,2600.00
2018-05-09T07:50:49.871Z,2628.00
2018-05-09T07:51:49.769Z,2644.00
2018-05-09T07:53:42.609Z,2676.00
2018-05-09T07:54:42.509Z,2708.00
2018-05-09T07:56:35.360Z,2744.00
2018-05-09T07:57:35.242Z,2772.00
2018-05-09T07:59:28.090Z,2836.00
2018-05-09T08:00:28.023Z,2872.00
2018-05-09T08:02:20.876Z,2948.00
2018-05-09T08:03:20.782Z,2968.00
2018-05-09T08:05:13.619Z,3012.00
2018-05-09T08:06:13.495Z,3024.00
2018-05-09T08:08:06.369Z,3108.00
2018-05-09T08:09:06.248Z,3124.00
2018-05-09T08:10:59.091Z,3152.00
2018-05-09T08:11:59.000Z,3172.00
2018-05-09T08:13:51.858Z,2856.00
2018-05-09T08:14:51.749Z,3192.00
2018-05-09T08:16:44.595Z,3324.00
2018-05-09T08:17:44.498Z,3324.00
2018-05-09T08:19:37.422Z,3352.00
2018-05-09T08:20:37.236Z,3404.00
2018-05-09T08:22:30.076Z,2628.00
2018-05-09T08:23:29.987Z,2392.00
2018-05-09T08:25:22.866Z,3220.00
2018-05-09T08:26:22.761Z,2544.00
2018-05-09T08:28:15.610Z,2292.00
2018-05-09T08:29:15.497Z,2460.00
2018-05-09T08:31:08.880Z,2596.00
2018-05-09T08:32:08.754Z,2548.00
2018-05-09T08:34:02.122Z,2632.00
2018-05-09T08:35:02.039Z,2664.00
2018-05-09T08:36:54.917Z,2728.00
2018-05-09T08:37:54.766Z,2812.00
2018-05-09T08:39:47.633Z,2948.00
2018-05-09T08:40:47.526Z,2956.00
2018-05-09T08:42:40.472Z,3084.00
2018-05-09T08:43:40.378Z,3200.00
2018-05-09T08:45:33.105Z,3108.00
2018-05-09T08:46:33.042Z,3084.00
2018-05-09T08:48:25.908Z,2996.00
2018-05-09T08:49:25.906Z,3004.00
2018-05-09T08:51:18.656Z,2984.00
2018-05-09T08:52:18.525Z,2996.00
2018-05-09T08:54:12.824Z,3100.00
2018-05-09T08:55:12.705Z,3168.00
2018-05-09T08:57:05.533Z,3260.00
2018-05-09T08:58:05.461Z,3372.00
2018-05-09T08:59:58.331Z,3548.00
2018-05-09T09:00:58.198Z,3904.00
2018-05-09T09:02:51.059Z,3736.00
2018-05-09T09:03:50.948Z,3520.00
2018-05-09T09:05:43.813Z,3504.00
2018-05-09T09:06:43.716Z,4400.00
2018-05-09T09:08:36.545Z,3924.00
2018-05-09T09:09:36.452Z,3716.00
2018-05-09T09:11:29.306Z,4132.00
2018-05-09T09:12:29.226Z,4632.00
2018-05-09T09:14:22.042Z,4216.00
2018-05-09T09:15:22.016Z,3740.00
2018-05-09T09:17:14.815Z,4548.00
2018-05-09T09:18:14.701Z,4620.00
2018-05-09T09:20:07.531Z,4664.00
2018-05-09T09:21:07.448Z,4360.00
2018-05-09T09:23:00.307Z,3760.00
2018-05-09T09:24:00.212Z,4616.00
2018-05-09T09:25:53.033Z,4772.00
2018-05-09T09:26:52.951Z,4272.00
2018-05-09T09:28:45.839Z,3476.00
2018-05-09T09:29:45.736Z,3632.00
2018-05-09T09:31:38.544Z,3940.00
2018-05-09T09:32:38.448Z,4048.00
2018-05-09T09:34:31.325Z,4204.00
2018-05-09T09:35:31.189Z,3780.00
2018-05-09T09:37:24.097Z,4476.00
2018-05-09T09:38:23.978Z,3800.00
2018-05-09T09:40:16.846Z,3576.00
2018-05-09T09:41:16.698Z,4248.00
2018-05-09T09:43:09.522Z,3968.00
2018-05-09T09:44:09.454Z,3952.00
2018-05-09T09:46:02.301Z,3636.00
2018-05-09T09:47:02.190Z,3620.00
2018-05-09T09:48:55.020Z,3980.00
2018-05-09T09:49:54.971Z,3940.00
2018-05-09T09:51:47.831Z,4124.00
2018-05-09T09:52:47.697Z,4260.00
2018-05-09T09:54:40.562Z,4532.00
2018-05-09T09:55:40.438Z,3284.00
2018-05-09T09:57:33.340Z,3624.00
2018-05-09T09:58:33.197Z,3484.00
2018-05-09T10:00:26.034Z,3448.00
2018-05-09T10:01:26.014Z,4180.00
2018-05-09T10:03:18.827Z,4524.00
2018-05-09T10:04:18.736Z,4668.00
2018-05-09T10:06:11.524Z,4360.00
2018-05-09T10:07:11.439Z,3884.00
2018-05-09T10:09:04.734Z,3068.00
2018-05-09T10:10:04.605Z,3988.00
2018-05-09T10:11:57.441Z,4472.00
2018-05-09T10:12:57.368Z,4500.00
2018-05-09T10:14:50.246Z,4420.00
2018-05-09T10:15:50.125Z,4012.00
2018-05-09T10:17:42.942Z,3860.00
2018-05-09T10:18:42.847Z,4152.00
2018-05-09T10:20:35.808Z,4356.00
2018-05-09T10:21:35.599Z,3900.00
2018-05-09T10:23:28.968Z,4220.00
2018-05-09T10:24:28.773Z,3808.00
2018-05-09T10:26:21.606Z,3900.00
2018-05-09T10:27:21.559Z,4412.00
2018-05-09T10:29:14.353Z,3408.00
2018-05-09T10:30:14.273Z,3076.00
2018-05-09T10:32:07.167Z,4572.00
2018-05-09T10:33:07.013Z,3656.00
2018-05-09T10:35:00.864Z,3400.00
2018-05-09T10:36:00.801Z,4712.00
2018-05-09T10:37:53.631Z,4376.00
2018-05-09T10:38:53.541Z,3680.00
2018-05-09T10:40:46.399Z,4452.00
2018-05-09T10:41:46.287Z,3304.00
2018-05-09T10:43:39.122Z,3468.00
2018-05-09T10:44:39.027Z,3264.00
2018-05-09T10:46:31.905Z,3088.00
2018-05-09T10:47:31.830Z,4156.00
2018-05-09T10:49:25.047Z,3808.00
2018-05-09T10:50:24.942Z,4244.00
2018-05-09T10:52:17.792Z,4376.00
2018-05-09T10:53:17.694Z,4336.00
2018-05-09T10:55:10.523Z,4236.00
2018-05-09T10:56:10.449Z,4240.00
2018-05-09T10:58:03.301Z,4280.00
2018-05-09T10:59:03.202Z,4216.00
2018-05-09T11:00:56.028Z,4136.00
2018-05-09T11:01:55.951Z,4104.00
2018-05-09T11:03:48.782Z,4028.00
2018-05-09T11:04:48.682Z,3968.00
2018-05-09T11:06:41.538Z,3932.00
2018-05-09T11:07:41.435Z,3920.00
2018-05-09T11:09:34.344Z,3928.00
2018-05-09T11:10:34.291Z,3900.00
2018-05-09T11:12:27.050Z,3908.00
2018-05-09T11:13:26.940Z,3908.00
2018-05-09T11:15:19.771Z,3944.00
2018-05-09T11:16:19.685Z,3920.00
2018-05-09T11:18:12.535Z,3892.00
2018-05-09T11:19:12.433Z,3868.00
2018-05-09T11:21:05.294Z,3884.00
2018-05-09T11:22:05.223Z,3920.00
2018-05-09T11:24:01.181Z,3928.00
2018-05-09T11:25:01.131Z,3924.00
2018-05-09T11:26:54.866Z,3924.00
2018-05-09T11:27:54.785Z,3888.00
2018-05-09T11:29:47.656Z,3860.00
2018-05-09T11:30:47.532Z,3896.00
2018-05-09T11:32:40.375Z,3904.00
2018-05-09T11:33:40.304Z,2756.00
2018-05-09T11:35:33.141Z,3896.00
2018-05-09T11:36:33.026Z,3876.00
2018-05-09T11:38:25.860Z,3932.00
2018-05-09T11:39:25.774Z,3976.00
2018-05-09T11:41:18.624Z,3944.00
2018-05-09T11:42:18.526Z,2568.00
2018-05-09T11:44:11.898Z,3940.00
2018-05-09T11:45:11.792Z,3960.00
2018-05-09T11:47:04.652Z,4136.00
2018-05-09T11:48:04.554Z,4160.00
2018-05-09T11:49:58.426Z,2644.00
2018-05-09T11:50:58.489Z,3936.00
2018-05-09T11:52:51.186Z,4060.00
2018-05-09T11:53:51.064Z,4100.00
2018-05-09T11:55:43.910Z,2624.00
2018-05-09T11:56:43.810Z,2908.00
2018-05-09T11:58:36.639Z,4180.00
2018-05-09T11:59:36.551Z,4060.00
2018-05-09T12:01:29.408Z,3652.00
2018-05-09T12:02:29.386Z,2616.00
2018-05-09T12:04:22.141Z,2980.00
2018-05-09T12:05:22.062Z,4040.00
2018-05-09T12:07:15.437Z,4028.00
2018-05-09T12:08:14.937Z,4028.00
2018-05-09T12:10:07.739Z,4112.00
2018-05-09T12:11:07.665Z,4096.00
2018-05-09T12:13:00.511Z,2316.00
2018-05-09T12:14:00.413Z,4176.00
2018-05-09T12:15:53.240Z,4248.00
2018-05-09T12:16:53.196Z,4252.00
2018-05-09T12:18:46.113Z,2844.00
2018-05-09T12:19:46.009Z,2504.00
2018-05-09T12:21:38.896Z,4256.00
2018-05-09T12:22:38.790Z,4304.00
2018-05-09T12:24:31.632Z,2680.00
2018-05-09T12:25:31.509Z,2528.00
2018-05-09T12:27:24.374Z,3996.00
2018-05-09T12:28:24.262Z,4368.00
2018-05-09T12:30:17.097Z,4384.00
2018-05-09T12:31:17.021Z,4316.00
2018-05-09T12:33:09.858Z,4204.00
2018-05-09T12:34:09.771Z,4148.00
2018-05-09T12:36:02.621Z,4248.00
2018-05-09T12:37:02.511Z,4244.00
2018-05-09T12:38:55.362Z,4176.00
2018-05-09T12:39:55.262Z,4148.00
2018-05-09T12:41:48.105Z,4116.00
2018-05-09T12:42:48.021Z,4132.00
2018-05-09T12:44:40.863Z,4044.00
2018-05-09T12:45:40.764Z,4212.00
2018-05-09T12:47:33.601Z,4128.00
2018-05-09T12:48:33.547Z,4080.00
2018-05-09T12:50:26.361Z,4216.00
2018-05-09T12:51:26.268Z,4152.00
2018-05-09T12:53:19.102Z,2612.00
2018-05-09T12:54:19.021Z,4204.00
2018-05-09T12:56:11.886Z,3352.00
2018-05-09T12:57:11.790Z,2620.00
2018-05-09T12:59:04.591Z,4092.00
2018-05-09T13:00:04.505Z,4036.00
2018-05-09T13:01:57.356Z,4068.00
2018-05-09T13:02:57.254Z,4104.00
2018-05-09T13:04:50.103Z,4164.00
2018-05-09T13:05:50.025Z,4196.00
2018-05-09T13:07:42.848Z,4228.00
2018-05-09T13:08:42.756Z,2728.00
2018-05-09T13:10:35.602Z,3620.00
2018-05-09T13:11:35.506Z,2956.00
2018-05-09T13:13:28.337Z,4148.00
2018-05-09T13:14:28.263Z,2860.00
2018-05-09T13:16:21.200Z,3640.00
2018-05-09T13:17:21.131Z,4068.00
2018-05-09T13:19:13.939Z,4100.00
2018-05-09T13:20:13.871Z,4140.00
2018-05-09T13:22:06.710Z,4208.00
2018-05-09T13:23:06.621Z,4208.00
2018-05-09T13:24:59.554Z,4112.00
2018-05-09T13:25:59.459Z,4116.00
2018-05-09T13:27:52.302Z,4156.00
2018-05-09T13:28:52.214Z,4132.00
2018-05-09T13:30:45.145Z,4140.00
2018-05-09T13:31:45.103Z,4100.00
2018-05-09T13:33:37.927Z,4044.00
2018-05-09T13:34:37.818Z,4116.00
2018-05-09T13:36:30.765Z,4208.00
2018-05-09T13:37:30.677Z,4100.00
2018-05-09T13:39:23.512Z,4128.00
2018-05-09T13:40:23.418Z,4128.00
2018-05-09T13:42:16.295Z,3736.00
2018-05-09T13:43:16.168Z,3656.00
2018-05-09T13:45:08.999Z,3200.00
2018-05-09T13:46:09.016Z,3980.00
2018-05-09T13:48:01.770Z,4084.00
2018-05-09T13:49:01.667Z,4120.00
2018-05-09T13:50:54.518Z,4180.00
2018-05-09T13:51:54.429Z,4176.00
2018-05-09T13:53:47.297Z,4188.00
2018-05-09T13:54:47.152Z,4184.00
2018-05-09T13:56:40.027Z,4212.00
2018-05-09T13:57:39.912Z,4224.00
2018-05-09T13:59:32.751Z,4268.00
2018-05-09T14:00:32.671Z,4296.00
2018-05-09T14:02:25.549Z,4240.00
2018-05-09T14:03:25.406Z,4216.00
2018-05-09T14:05:18.355Z,4236.00
2018-05-09T14:06:18.255Z,4276.00
2018-05-09T14:08:11.126Z,4260.00
2018-05-09T14:09:11.004Z,4268.00
2018-05-09T14:11:03.852Z,4252.00
2018-05-09T14:12:03.771Z,4228.00
2018-05-09T14:13:56.602Z,4192.00
2018-05-09T14:14:56.526Z,4140.00
2018-05-09T14:16:49.340Z,4220.00
2018-05-09T14:17:49.291Z,4228.00
2018-05-09T14:19:42.117Z,4240.00
2018-05-09T14:20:42.010Z,4248.00
2018-05-09T14:22:34.872Z,4252.00
2018-05-09T14:23:34.755Z,4240.00
2018-05-09T14:25:27.704Z,4252.00
2018-05-09T14:26:27.513Z,4256.00
2018-05-09T14:28:20.502Z,4292.00
2018-05-09T14:29:20.260Z,4324.00
2018-05-09T14:31:13.125Z,4336.00
2018-05-09T14:32:13.016Z,4356.00
2018-05-09T14:34:05.854Z,4392.00
2018-05-09T14:35:05.753Z,4412.00
2018-05-09T14:36:58.629Z,4468.00
2018-05-09T14:37:58.501Z,4500.00
2018-05-09T14:39:51.333Z,4432.00
2018-05-09T14:40:51.252Z,4416.00
2018-05-09T14:42:44.131Z,4448.00
2018-05-09T14:43:44.018Z,4472.00
2018-05-09T14:45:36.862Z,4460.00
2018-05-09T14:46:36.757Z,4488.00
2018-05-09T14:48:29.610Z,4532.00
2018-05-09T14:49:29.510Z,4536.00
2018-05-09T14:51:22.378Z,4544.00
2018-05-09T14:52:22.262Z,4548.00
2018-05-09T14:54:15.094Z,4584.00
2018-05-09T14:55:15.017Z,4584.00
2018-05-09T14:57:07.849Z,4632.00
2018-05-09T14:58:07.753Z,4640.00
2018-05-09T15:00:00.621Z,4648.00
2018-05-09T15:01:00.498Z,4672.00
2018-05-09T15:02:53.385Z,4724.00
2018-05-09T15:03:53.266Z,4784.00
2018-05-09T15:05:46.241Z,4876.00
2018-05-09T15:06:46.015Z,4920.00
2018-05-09T15:08:38.940Z,4928.00
2018-05-09T15:09:38.762Z,4956.00
2018-05-09T15:11:31.578Z,4960.00
2018-05-09T15:12:31.494Z,4924.00
2018-05-09T15:14:24.344Z,4920.00
2018-05-09T15:15:24.256Z,4940.00
2018-05-09T15:17:17.108Z,4908.00
2018-05-09T15:18:16.997Z,4828.00
2018-05-09T15:20:09.848Z,3368.00
2018-05-09T15:21:09.754Z,3236.00
2018-05-09T15:23:03.148Z,3720.00
2018-05-09T15:24:02.601Z,2964.00
2018-05-09T15:25:55.461Z,2792.00
2018-05-09T15:26:55.369Z,2880.00
2018-05-09T15:28:48.211Z,2588.00
2018-05-09T15:29:48.125Z,2516.00
2018-05-09T15:31:40.949Z,2496.00
2018-05-09T15:32:40.868Z,2436.00
2018-05-09T15:34:33.711Z,2396.00
2018-05-09T15:35:33.605Z,2372.00
2018-05-09T15:37:26.462Z,2284.00
2018-05-09T15:38:26.359Z,2268.00
2018-05-09T15:40:19.298Z,2232.00
2018-05-09T15:41:19.107Z,2240.00
2018-05-09T15:43:11.929Z,2652.00
2018-05-09T15:44:11.847Z,3336.00
2018-05-09T15:46:04.810Z,3584.00
2018-05-09T15:47:04.698Z,3720.00
2018-05-09T15:48:57.556Z,3896.00
2018-05-09T15:49:57.463Z,4008.00
2018-05-09T15:51:50.285Z,4228.00
2018-05-09T15:52:50.194Z,4364.00
2018-05-09T15:54:43.599Z,4608.00
2018-05-09T15:55:43.462Z,4756.00
2018-05-09T15:57:36.316Z,4688.00
2018-05-09T15:58:36.215Z,4316.00
2018-05-09T16:00:29.080Z,5288.00
2018-05-09T16:01:28.957Z,5256.00
2018-05-09T16:03:21.791Z,4804.00
2018-05-09T16:04:21.715Z,5060.00
2018-05-09T16:06:14.612Z,4448.00
2018-05-09T16:07:14.472Z,4760.00
2018-05-09T16:09:07.288Z,5680.00
2018-05-09T16:10:07.228Z,5560.00
2018-05-09T16:12:00.080Z,5328.00
2018-05-09T16:12:59.967Z,6280.00
2018-05-09T16:14:52.792Z,6032.00
2018-05-09T16:15:52.724Z,4312.00
2018-05-09T16:17:45.574Z,5928.00
2018-05-09T16:18:45.630Z,6028.00
2018-05-09T16:20:38.295Z,6308.00
2018-05-09T16:21:38.213Z,6412.00
2018-05-09T16:23:31.045Z,6576.00
2018-05-09T16:24:30.964Z,6664.00
2018-05-09T16:26:23.924Z,6752.00
2018-05-09T16:27:23.747Z,6744.00
2018-05-09T16:29:16.546Z,6684.00
2018-05-09T16:30:16.483Z,6708.00
2018-05-09T16:32:09.306Z,6780.00
2018-05-09T16:33:09.215Z,6856.00
2018-05-09T16:35:02.176Z,6940.00
2018-05-09T16:36:02.077Z,6952.00
2018-05-09T16:37:54.919Z,7052.00
2018-05-09T16:38:54.845Z,7116.00
2018-05-09T16:40:47.639Z,7144.00
2018-05-09T16:41:47.593Z,7136.00
2018-05-09T16:43:40.448Z,7100.00
2018-05-09T16:44:40.321Z,7080.00
2018-05-09T16:46:33.140Z,7144.00
2018-05-09T16:47:33.073Z,7228.00
2018-05-09T16:49:25.918Z,7328.00
2018-05-09T16:50:25.821Z,7424.00
2018-05-09T16:52:18.647Z,7684.00
2018-05-09T16:53:18.654Z,7868.00
2018-05-09T16:55:12.014Z,8100.00
2018-05-09T16:56:11.925Z,8172.00
2018-05-09T16:58:04.756Z,8416.00
2018-05-09T16:59:04.711Z,8752.00
2018-05-09T17:00:57.537Z,27392.00
2018-05-09T17:01:57.425Z,47264.00
2018-05-09T17:03:50.333Z,57536.00
2018-05-09T17:04:50.195Z,57792.00
2018-05-09T17:06:42.997Z,57408.00
2018-05-09T17:07:42.941Z,56704.00
2018-05-09T17:09:35.784Z,55392.00
2018-05-09T17:10:35.673Z,53728.00
2018-05-09T17:12:28.510Z,52416.00
2018-05-09T17:13:28.431Z,52032.00
2018-05-09T17:15:21.261Z,50976.00
2018-05-09T17:16:21.177Z,49824.00
2018-05-09T17:18:14.031Z,48128.00
2018-05-09T17:19:13.953Z,49344.00
2018-05-09T17:21:06.819Z,47936.00
2018-05-09T17:22:06.682Z,46944.00
2018-05-09T17:24:00.013Z,47616.00
2018-05-09T17:24:59.941Z,46592.00
2018-05-09T17:26:52.785Z,43392.00
2018-05-09T17:27:52.713Z,42144.00
2018-05-09T17:29:45.525Z,42816.00
2018-05-09T17:30:45.495Z,42944.00
2018-05-09T17:32:38.300Z,42720.00
2018-05-09T17:33:38.188Z,42144.00
2018-05-09T17:35:31.148Z,39424.00
2018-05-09T17:36:31.040Z,37216.00
2018-05-09T17:38:23.870Z,35424.00
2018-05-09T17:39:23.799Z,35872.00
2018-05-09T17:41:16.640Z,35008.00
2018-05-09T17:42:16.546Z,33792.00
2018-05-09T17:44:09.371Z,26432.00
2018-05-09T17:45:09.286Z,24000.00
2018-05-09T17:47:02.149Z,30624.00